createdAt,value
2018-08-20T00:00:28.115Z,27.00
2018-08-20T00:02:55.629Z,27.00
2018-08-20T00:05:24.533Z,26.90
2018-08-20T00:07:55.958Z,26.90
2018-08-20T00:10:23.479Z,26.90
2018-08-20T00:12:50.969Z,26.90
2018-08-20T00:15:18.570Z,26.80
2018-08-20T00:17:46.012Z,26.80
2018-08-20T00:20:13.493Z,26.70
2018-08-20T00:22:41.140Z,26.70
2018-08-20T00:25:15.323Z,26.70
2018-08-20T00:27:43.172Z,26.70
2018-08-20T00:30:12.494Z,26.60
2018-08-20T00:32:41.899Z,26.60
2018-08-20T00:35:10.383Z,26.50
2018-08-20T00:37:37.855Z,26.50
2018-08-20T00:40:05.357Z,26.50
2018-08-20T00:42:32.799Z,26.50
2018-08-20T00:45:00.307Z,26.50
2018-08-20T00:47:27.749Z,26.30
2018-08-20T00:49:55.199Z,26.40
2018-08-20T00:52:22.719Z,26.40
2018-08-20T00:54:50.142Z,26.40
2018-08-20T00:57:17.577Z,26.40
2018-08-20T00:59:45.081Z,26.30
2018-08-20T01:02:12.523Z,26.30
2018-08-20T01:04:40.019Z,26.20
2018-08-20T01:07:07.491Z,26.20
2018-08-20T01:09:34.925Z,26.00
2018-08-20T01:12:02.528Z,26.10
2018-08-20T01:14:29.999Z,26.10
2018-08-20T01:16:57.499Z,26.20
2018-08-20T01:19:24.943Z,26.10
2018-08-20T01:21:52.465Z,26.10
2018-08-20T01:24:19.959Z,26.00
2018-08-20T01:26:47.447Z,26.00
2018-08-20T01:29:14.906Z,26.00
2018-08-20T01:31:42.421Z,25.80
2018-08-20T01:34:12.030Z,26.00
2018-08-20T01:36:39.509Z,26.00
2018-08-20T01:39:06.975Z,25.90
2018-08-20T01:41:34.430Z,25.90
2018-08-20T01:44:01.904Z,25.90
2018-08-20T01:46:29.338Z,25.90
2018-08-20T01:48:56.849Z,25.70
2018-08-20T01:51:24.312Z,25.90
2018-08-20T01:53:51.789Z,25.80
2018-08-20T01:56:19.254Z,25.80
2018-08-20T01:58:46.722Z,25.80
2018-08-20T02:01:14.151Z,25.80
2018-08-20T02:03:41.614Z,25.80
2018-08-20T02:06:09.119Z,25.80
2018-08-20T02:08:36.586Z,25.80
2018-08-20T02:11:04.106Z,25.70
2018-08-20T02:13:31.543Z,25.80
2018-08-20T02:15:58.978Z,25.70
2018-08-20T02:18:26.441Z,25.80
2018-08-20T02:20:53.926Z,25.70
2018-08-20T02:23:21.378Z,25.70
2018-08-20T02:25:48.824Z,25.70
2018-08-20T02:28:16.286Z,25.70
2018-08-20T02:30:43.725Z,25.60
2018-08-20T02:33:11.201Z,25.60
2018-08-20T02:35:38.668Z,25.50
2018-08-20T02:38:06.196Z,25.50
2018-08-20T02:40:33.680Z,25.50
2018-08-20T02:43:01.133Z,25.50
2018-08-20T02:45:28.620Z,25.50
2018-08-20T02:47:56.054Z,25.40
2018-08-20T02:50:23.528Z,25.40
2018-08-20T02:52:50.996Z,25.40
2018-08-20T02:55:18.495Z,25.30
2018-08-20T02:57:45.979Z,25.30
2018-08-20T03:00:14.074Z,25.30
2018-08-20T03:02:41.703Z,25.30
2018-08-20T03:05:10.536Z,25.30
2018-08-20T03:07:38.022Z,25.30
2018-08-20T03:10:07.423Z,25.30
2018-08-20T03:12:34.889Z,25.30
2018-08-20T03:15:02.423Z,25.30
2018-08-20T03:17:29.933Z,25.30
2018-08-20T03:19:57.419Z,25.30
2018-08-20T03:22:24.925Z,25.30
2018-08-20T03:24:52.447Z,25.30
2018-08-20T03:27:20.037Z,25.30
2018-08-20T03:29:47.515Z,25.30
2018-08-20T03:32:15.029Z,25.30
2018-08-20T03:34:42.513Z,25.30
2018-08-20T03:37:10.120Z,25.30
2018-08-20T03:39:37.638Z,25.30
2018-08-20T03:42:05.387Z,25.30
2018-08-20T03:44:32.930Z,25.30
2018-08-20T03:47:00.387Z,25.30
2018-08-20T03:49:27.923Z,25.20
2018-08-20T03:51:55.459Z,25.20
2018-08-20T03:54:22.968Z,25.20
2018-08-20T03:56:50.467Z,25.20
2018-08-20T03:59:30.116Z,25.10
2018-08-20T04:01:58.615Z,24.80
2018-08-20T04:04:26.426Z,25.10
2018-08-20T04:06:53.945Z,25.10
2018-08-20T04:09:21.382Z,25.00
2018-08-20T04:11:48.860Z,25.00
2018-08-20T04:14:16.381Z,25.00
2018-08-20T04:16:43.875Z,25.00
2018-08-20T04:19:11.309Z,25.00
2018-08-20T04:21:38.766Z,24.90
2018-08-20T04:24:06.337Z,24.90
2018-08-20T04:26:33.790Z,24.90
2018-08-20T04:29:01.367Z,24.90
2018-08-20T04:31:28.831Z,24.90
2018-08-20T04:33:56.316Z,24.90
2018-08-20T04:36:23.892Z,24.90
2018-08-20T04:38:51.334Z,24.90
2018-08-20T04:41:18.771Z,24.90
2018-08-20T04:43:46.211Z,24.90
2018-08-20T04:46:13.678Z,24.90
2018-08-20T04:48:41.106Z,24.90
2018-08-20T04:51:08.702Z,24.90
2018-08-20T04:53:35.990Z,24.90
2018-08-20T04:56:03.481Z,24.90
2018-08-20T04:58:31.008Z,24.90
2018-08-20T05:00:58.562Z,24.90
2018-08-20T05:03:26.034Z,24.90
2018-08-20T05:05:53.482Z,24.90
2018-08-20T05:08:21.022Z,24.90
2018-08-20T05:10:48.825Z,24.80
2018-08-20T05:13:16.350Z,24.80
2018-08-20T05:15:43.844Z,24.70
2018-08-20T05:18:11.321Z,24.80
2018-08-20T05:20:38.804Z,24.40
2018-08-20T05:23:06.275Z,24.80
2018-08-20T05:25:33.809Z,24.80
2018-08-20T05:28:01.298Z,24.80
2018-08-20T05:30:28.899Z,24.80
2018-08-20T05:32:56.422Z,24.80
2018-08-20T05:35:23.966Z,24.80
2018-08-20T05:37:51.488Z,24.80
2018-08-20T05:40:19.868Z,24.90
2018-08-20T05:42:47.347Z,24.80
2018-08-20T05:45:14.795Z,24.80
2018-08-20T05:47:42.267Z,24.90
2018-08-20T05:50:09.817Z,24.90
2018-08-20T05:52:37.478Z,24.90
2018-08-20T05:55:04.993Z,24.90
2018-08-20T05:57:32.735Z,24.90
2018-08-20T06:00:00.978Z,24.90
2018-08-20T06:02:28.476Z,24.90
2018-08-20T06:04:56.040Z,24.90
2018-08-20T06:07:23.561Z,24.90
2018-08-20T06:09:51.064Z,22.00
2018-08-20T06:12:18.638Z,25.00
2018-08-20T06:14:46.139Z,25.00
2018-08-20T06:17:13.738Z,25.10
2018-08-20T06:19:41.624Z,25.10
2018-08-20T06:22:09.064Z,25.10
2018-08-20T06:24:36.690Z,25.20
2018-08-20T06:27:04.460Z,25.30
2018-08-20T06:29:32.020Z,25.30
2018-08-20T06:31:59.512Z,25.30
2018-08-20T06:34:27.147Z,25.40
2018-08-20T06:36:54.661Z,25.40
2018-08-20T06:39:22.240Z,25.50
2018-08-20T06:41:49.809Z,25.50
2018-08-20T06:44:17.317Z,25.60
2018-08-20T06:46:44.842Z,25.60
2018-08-20T06:49:12.314Z,25.60
2018-08-20T06:51:40.643Z,25.70
2018-08-20T06:54:08.263Z,25.80
2018-08-20T06:56:35.795Z,25.80
2018-08-20T06:59:03.401Z,25.80
2018-08-20T07:01:30.970Z,25.90
2018-08-20T07:03:58.504Z,25.90
2018-08-20T07:06:26.052Z,26.00
2018-08-20T07:08:53.973Z,26.10
2018-08-20T07:11:21.571Z,26.10
2018-08-20T07:13:49.122Z,26.10
2018-08-20T07:16:16.768Z,26.30
2018-08-20T07:18:44.367Z,26.20
2018-08-20T07:21:11.871Z,26.40
2018-08-20T07:23:39.524Z,26.50
2018-08-20T07:26:07.078Z,26.60
2018-08-20T07:28:34.583Z,26.50
2018-08-20T07:31:02.129Z,26.70
2018-08-20T07:33:29.656Z,26.80
2018-08-20T07:35:57.286Z,26.90
2018-08-20T07:38:24.782Z,27.10
2018-08-20T07:40:52.294Z,27.10
2018-08-20T07:43:19.748Z,27.20
2018-08-20T07:45:47.268Z,27.30
2018-08-20T07:48:14.755Z,27.00
2018-08-20T07:50:42.353Z,27.50
2018-08-20T07:53:09.906Z,27.60
2018-08-20T07:55:37.514Z,27.60
2018-08-20T07:58:05.875Z,27.80
2018-08-20T08:00:33.429Z,27.80
2018-08-20T08:03:00.977Z,28.10
2018-08-20T08:05:28.491Z,28.10
2018-08-20T08:07:56.027Z,28.30
2018-08-20T08:10:23.539Z,28.40
2018-08-20T08:12:51.066Z,28.40
2018-08-20T08:15:18.594Z,28.60
2018-08-20T08:17:46.281Z,28.70
2018-08-20T08:20:14.640Z,28.70
2018-08-20T08:22:42.404Z,28.80
2018-08-20T08:25:10.394Z,28.20
2018-08-20T08:27:38.144Z,29.10
2018-08-20T08:30:10.482Z,29.30
2018-08-20T08:32:38.016Z,29.20
2018-08-20T08:35:05.964Z,28.70
2018-08-20T08:37:33.433Z,29.50
2018-08-20T08:40:00.936Z,29.70
2018-08-20T08:42:28.434Z,29.80
2018-08-20T08:44:55.986Z,29.90
2018-08-20T08:47:24.004Z,29.80
2018-08-20T08:49:51.610Z,30.10
2018-08-20T08:52:19.048Z,30.20
2018-08-20T08:54:46.670Z,30.30
2018-08-20T08:57:14.145Z,30.40
2018-08-20T08:59:41.673Z,30.60
2018-08-20T09:02:09.300Z,30.70
2018-08-20T09:04:36.848Z,30.80
2018-08-20T09:07:04.422Z,30.90
2018-08-20T09:09:31.922Z,30.80
2018-08-20T09:11:59.456Z,31.20
2018-08-20T09:14:26.899Z,31.30
2018-08-20T09:16:54.384Z,31.50
2018-08-20T09:19:22.042Z,31.60
2018-08-20T09:21:49.598Z,31.80
2018-08-20T09:24:17.101Z,31.80
2018-08-20T09:26:44.674Z,32.10
2018-08-20T09:29:12.231Z,34.40
2018-08-20T09:31:39.802Z,32.30
2018-08-20T09:34:07.398Z,31.90
2018-08-20T09:36:34.912Z,32.60
2018-08-20T09:39:02.638Z,32.80
2018-08-20T09:41:30.180Z,31.20
2018-08-20T09:43:57.666Z,33.30
2018-08-20T09:46:25.200Z,33.50
2018-08-20T09:48:52.799Z,33.70
2018-08-20T09:51:20.277Z,33.90
2018-08-20T09:53:47.759Z,34.30
2018-08-20T09:56:15.274Z,34.60
2018-08-20T09:58:42.795Z,32.40
2018-08-20T10:01:10.364Z,35.20
2018-08-20T10:03:42.448Z,35.50
2018-08-20T10:06:10.007Z,35.70
2018-08-20T10:08:37.569Z,36.00
2018-08-20T10:11:05.120Z,36.30
2018-08-20T10:13:32.596Z,36.60
2018-08-20T10:16:00.138Z,34.50
2018-08-20T10:18:27.680Z,37.20
2018-08-20T10:20:55.170Z,37.40
2018-08-20T10:23:22.791Z,37.70
2018-08-20T10:25:50.368Z,35.80
2018-08-20T10:28:17.883Z,38.10
2018-08-20T10:30:45.383Z,38.20
2018-08-20T10:33:12.905Z,38.40
2018-08-20T10:35:40.427Z,38.60
2018-08-20T10:38:08.127Z,38.80
2018-08-20T10:40:35.717Z,39.00
2018-08-20T10:43:03.289Z,39.20
2018-08-20T10:45:37.492Z,39.30
2018-08-20T10:48:05.431Z,39.50
2018-08-20T10:50:32.901Z,39.50
2018-08-20T10:53:00.557Z,39.60
2018-08-20T10:55:28.123Z,39.10
2018-08-20T10:57:55.593Z,39.50
2018-08-20T11:00:23.166Z,39.40
2018-08-20T11:02:50.645Z,39.30
2018-08-20T11:05:18.857Z,39.20
2018-08-20T11:07:46.497Z,39.00
2018-08-20T11:10:14.091Z,38.90
2018-08-20T11:12:41.567Z,38.60
2018-08-20T11:15:10.325Z,38.50
2018-08-20T11:17:38.017Z,38.30
2018-08-20T11:20:10.714Z,36.60
2018-08-20T11:22:38.196Z,38.00
2018-08-20T11:25:06.413Z,37.90
2018-08-20T11:27:34.074Z,37.80
2018-08-20T11:30:01.587Z,37.70
2018-08-20T11:32:29.133Z,37.70
2018-08-20T11:34:56.697Z,37.50
2018-08-20T11:37:24.847Z,35.90
2018-08-20T11:39:52.431Z,37.40
2018-08-20T11:42:19.907Z,37.30
2018-08-20T11:44:47.483Z,37.30
2018-08-20T11:47:15.097Z,37.30
2018-08-20T11:49:42.550Z,37.20
2018-08-20T11:52:10.063Z,37.20
2018-08-20T11:54:37.584Z,37.20
2018-08-20T11:57:05.293Z,37.20
2018-08-20T11:59:32.852Z,37.10
2018-08-20T12:02:00.873Z,37.00
2018-08-20T12:04:28.326Z,37.00
2018-08-20T12:06:55.821Z,36.90
2018-08-20T12:09:23.608Z,37.00
2018-08-20T12:11:51.175Z,36.80
2018-08-20T12:14:18.766Z,36.80
2018-08-20T12:16:46.324Z,35.10
2018-08-20T12:19:13.932Z,36.80
2018-08-20T12:21:41.448Z,36.60
2018-08-20T12:24:09.198Z,35.70
2018-08-20T12:26:36.814Z,35.80
2018-08-20T12:29:04.397Z,36.80
2018-08-20T12:31:31.926Z,36.60
2018-08-20T12:33:59.385Z,36.60
2018-08-20T12:36:27.907Z,36.70
2018-08-20T12:38:55.452Z,36.70
2018-08-20T12:41:22.980Z,36.70
2018-08-20T12:43:50.544Z,36.60
2018-08-20T12:46:18.820Z,35.20
2018-08-20T12:48:48.398Z,36.70
2018-08-20T12:51:15.929Z,36.80
2018-08-20T12:53:43.564Z,36.90
2018-08-20T12:56:11.535Z,36.90
2018-08-20T12:58:43.877Z,36.80
2018-08-20T13:01:11.393Z,35.30
2018-08-20T13:03:38.965Z,36.90
2018-08-20T13:06:06.510Z,36.90
2018-08-20T13:08:34.087Z,37.00
2018-08-20T13:11:01.582Z,37.00
2018-08-20T13:13:29.654Z,36.90
2018-08-20T13:15:57.390Z,37.00
2018-08-20T13:18:24.945Z,36.90
2018-08-20T13:20:52.437Z,36.90
2018-08-20T13:23:20.000Z,36.90
2018-08-20T13:25:47.532Z,35.50
2018-08-20T13:28:15.629Z,37.00
2018-08-20T13:30:43.309Z,36.80
2018-08-20T13:33:10.773Z,37.00
2018-08-20T13:35:38.380Z,37.00
2018-08-20T13:38:05.963Z,37.00
2018-08-20T13:40:33.551Z,37.80
2018-08-20T13:43:01.055Z,37.20
2018-08-20T13:45:28.718Z,37.20
2018-08-20T13:47:56.278Z,37.20
2018-08-20T13:50:23.831Z,37.50
2018-08-20T13:52:51.418Z,37.30
2018-08-20T13:55:18.940Z,37.40
2018-08-20T13:57:47.611Z,37.40
2018-08-20T14:00:17.524Z,37.40
2018-08-20T14:02:45.054Z,37.40
2018-08-20T14:05:13.733Z,37.40
2018-08-20T14:07:41.294Z,37.40
2018-08-20T14:10:10.047Z,37.30
2018-08-20T14:12:38.513Z,37.30
2018-08-20T14:15:06.923Z,37.40
2018-08-20T14:17:34.445Z,37.20
2018-08-20T14:20:02.222Z,37.30
2018-08-20T14:22:29.853Z,37.40
2018-08-20T14:24:57.487Z,35.90
2018-08-20T14:27:25.733Z,37.40
2018-08-20T14:29:53.320Z,37.40
2018-08-20T14:32:20.824Z,37.50
2018-08-20T14:34:48.324Z,37.60
2018-08-20T14:37:15.840Z,37.60
2018-08-20T14:39:43.340Z,37.60
2018-08-20T14:42:10.924Z,37.50
2018-08-20T14:44:38.458Z,37.50
2018-08-20T14:47:06.027Z,38.40
2018-08-20T14:49:33.591Z,37.50
2018-08-20T14:52:01.365Z,37.40
2018-08-20T14:54:28.924Z,37.40
2018-08-20T14:56:56.471Z,37.30
2018-08-20T14:59:23.998Z,37.30
2018-08-20T15:01:51.670Z,37.30
2018-08-20T15:04:19.167Z,37.30
2018-08-20T15:06:58.888Z,37.20
2018-08-20T15:09:27.618Z,37.20
2018-08-20T15:11:55.565Z,37.10
2018-08-20T15:14:23.143Z,37.10
2018-08-20T15:16:50.652Z,37.10
2018-08-20T15:19:18.763Z,36.90
2018-08-20T15:21:46.590Z,37.20
2018-08-20T15:24:14.718Z,37.10
2018-08-20T15:26:42.264Z,37.00
2018-08-20T15:29:09.806Z,38.50
2018-08-20T15:31:37.356Z,37.10
2018-08-20T15:34:04.935Z,37.20
2018-08-20T15:36:32.456Z,37.20
2018-08-20T15:39:00.336Z,37.20
2018-08-20T15:41:27.906Z,37.30
2018-08-20T15:44:02.481Z,37.30
2018-08-20T15:46:30.322Z,37.10
2018-08-20T15:48:57.941Z,37.30
2018-08-20T15:51:25.412Z,37.30
2018-08-20T15:53:54.493Z,37.20
2018-08-20T15:56:22.036Z,37.30
2018-08-20T15:58:49.537Z,37.30
2018-08-20T16:01:17.074Z,37.30
2018-08-20T16:03:44.597Z,37.30
2018-08-20T16:06:12.256Z,37.20
2018-08-20T16:08:39.780Z,37.10
2018-08-20T16:11:07.292Z,37.10
2018-08-20T16:13:34.939Z,37.00
2018-08-20T16:16:02.573Z,36.90
2018-08-20T16:18:30.217Z,36.80
2018-08-20T16:20:58.657Z,36.60
2018-08-20T16:23:26.197Z,36.50
2018-08-20T16:25:53.766Z,36.50
2018-08-20T16:28:21.275Z,36.40
2018-08-20T16:30:48.876Z,36.30
2018-08-20T16:33:16.391Z,36.20
2018-08-20T16:35:43.932Z,36.00
2018-08-20T16:38:11.492Z,36.00
2018-08-20T16:40:39.066Z,35.80
2018-08-20T16:43:06.672Z,35.60
2018-08-20T16:45:34.312Z,35.60
2018-08-20T16:48:02.087Z,34.30
2018-08-20T16:50:29.733Z,32.90
2018-08-20T16:52:57.383Z,35.20
2018-08-20T16:55:25.037Z,35.10
2018-08-20T16:57:52.686Z,35.20
2018-08-20T17:00:20.262Z,35.10
2018-08-20T17:02:47.846Z,34.90
2018-08-20T17:05:15.492Z,34.80
2018-08-20T17:07:43.095Z,34.40
2018-08-20T17:10:11.799Z,34.70
2018-08-20T17:12:39.824Z,33.50
2018-08-20T17:15:10.577Z,34.50
2018-08-20T17:17:38.718Z,34.30
2018-08-20T17:20:07.557Z,34.40
2018-08-20T17:22:35.165Z,33.20
2018-08-20T17:25:02.747Z,34.10
2018-08-20T17:27:30.942Z,34.00
2018-08-20T17:29:58.458Z,34.00
2018-08-20T17:32:25.953Z,34.00
2018-08-20T17:34:53.419Z,33.90
2018-08-20T17:37:20.998Z,33.70
2018-08-20T17:40:02.931Z,33.70
2018-08-20T17:42:31.563Z,33.70
2018-08-20T17:44:59.634Z,33.60
2018-08-20T17:47:28.672Z,33.50
2018-08-20T17:49:57.326Z,33.40
2018-08-20T17:52:31.144Z,33.30
2018-08-20T17:55:00.335Z,33.20
2018-08-20T17:57:27.841Z,33.20
2018-08-20T18:00:07.484Z,30.90
2018-08-20T18:02:35.980Z,33.00
2018-08-20T18:05:03.586Z,33.00
2018-08-20T18:07:31.026Z,32.90
2018-08-20T18:09:58.518Z,32.90
2018-08-20T18:12:26.294Z,32.80
2018-08-20T18:14:58.314Z,32.70
2018-08-20T18:17:25.908Z,32.70
2018-08-20T18:19:53.334Z,32.60
2018-08-20T18:22:20.900Z,32.50
2018-08-20T18:24:48.402Z,32.50
2018-08-20T18:27:16.050Z,32.40
2018-08-20T18:29:43.850Z,32.40
2018-08-20T18:32:11.420Z,32.30
2018-08-20T18:34:39.035Z,32.20
2018-08-20T18:37:06.683Z,32.10
2018-08-20T18:39:34.201Z,32.00
2018-08-20T18:42:07.304Z,32.00
2018-08-20T18:44:35.068Z,31.90
2018-08-20T18:47:02.888Z,31.90
2018-08-20T18:49:30.548Z,31.80
2018-08-20T18:52:06.819Z,31.70
2018-08-20T18:54:36.125Z,31.70
2018-08-20T18:57:04.628Z,31.70
2018-08-20T18:59:33.560Z,32.60
2018-08-20T19:02:01.259Z,31.50
2018-08-20T19:04:35.028Z,30.70
2018-08-20T19:07:09.972Z,31.40
2018-08-20T19:09:38.505Z,31.70
2018-08-20T19:12:06.451Z,31.30
2018-08-20T19:14:34.519Z,31.30
2018-08-20T19:17:03.010Z,31.30
2018-08-20T19:19:35.112Z,31.20
2018-08-20T19:22:03.571Z,31.20
2018-08-20T19:24:39.419Z,31.20
2018-08-20T19:27:09.893Z,31.20
2018-08-20T19:29:37.587Z,31.20
2018-08-20T19:32:07.153Z,31.20
2018-08-20T19:34:36.137Z,31.10
2018-08-20T19:37:04.092Z,31.10
2018-08-20T19:39:31.966Z,31.10
2018-08-20T19:41:59.509Z,31.10
2018-08-20T19:44:27.149Z,30.80
2018-08-20T19:46:54.835Z,30.80
2018-08-20T19:49:22.937Z,30.90
2018-08-20T19:51:50.527Z,30.90
2018-08-20T19:54:18.089Z,30.80
2018-08-20T19:56:45.715Z,30.80
2018-08-20T19:59:17.021Z,30.80
2018-08-20T20:01:44.617Z,30.70
2018-08-20T20:04:15.821Z,30.60
2018-08-20T20:06:43.900Z,30.70
2018-08-20T20:09:11.656Z,30.60
2018-08-20T20:11:41.105Z,30.60
2018-08-20T20:14:08.733Z,30.50
2018-08-20T20:16:41.985Z,30.40
2018-08-20T20:19:10.205Z,30.40
2018-08-20T20:21:38.044Z,30.40
2018-08-20T20:24:07.355Z,30.40
2018-08-20T20:26:35.005Z,30.30
2018-08-20T20:29:03.332Z,30.20
2018-08-20T20:31:30.973Z,30.20
2018-08-20T20:33:58.613Z,30.90
2018-08-20T20:36:27.744Z,30.10
2018-08-20T20:38:55.808Z,30.10
2018-08-20T20:41:23.870Z,30.00
2018-08-20T20:43:52.051Z,29.80
2018-08-20T20:46:19.717Z,30.00
2018-08-20T20:48:47.412Z,29.90
2018-08-20T20:51:15.093Z,28.90
2018-08-20T20:53:42.706Z,29.90
2018-08-20T20:56:10.332Z,29.70
2018-08-20T20:58:38.836Z,29.70
2018-08-20T21:01:07.865Z,29.70
2018-08-20T21:03:35.640Z,29.70
2018-08-20T21:06:03.926Z,29.70
2018-08-20T21:08:45.360Z,29.60
2018-08-20T21:11:14.002Z,29.50
2018-08-20T21:13:42.298Z,29.50
2018-08-20T21:16:11.431Z,29.50
2018-08-20T21:18:57.658Z,26.20
2018-08-20T21:21:25.955Z,28.50
2018-08-20T21:23:55.642Z,29.40
2018-08-20T21:26:23.237Z,29.30
2018-08-20T21:28:54.598Z,29.20
2018-08-20T21:31:23.649Z,29.40
2018-08-20T21:34:00.314Z,29.20
2018-08-20T21:36:27.947Z,29.20
2018-08-20T21:38:55.588Z,29.10
2018-08-20T21:41:24.465Z,27.70
2018-08-20T21:43:52.133Z,29.00
2018-08-20T21:46:20.862Z,29.00
2018-08-20T21:48:48.545Z,28.80
2018-08-20T21:51:19.015Z,28.80
2018-08-20T21:53:46.629Z,28.90
2018-08-20T21:56:14.293Z,28.90
2018-08-20T21:58:43.070Z,27.40
2018-08-20T22:01:12.557Z,28.80
2018-08-20T22:03:40.848Z,26.70
2018-08-20T22:06:08.710Z,28.80
2018-08-20T22:08:36.401Z,28.70
2018-08-20T22:11:04.084Z,28.50
2018-08-20T22:13:31.676Z,28.60
2018-08-20T22:16:14.211Z,28.60
2018-08-20T22:18:43.215Z,28.60
2018-08-20T22:21:12.899Z,28.60
2018-08-20T22:23:41.186Z,27.10
2018-08-20T22:26:09.973Z,28.50
2018-08-20T22:28:37.667Z,28.50
2018-08-20T22:31:05.429Z,28.40
2018-08-20T22:33:33.474Z,28.40
2018-08-20T22:36:01.088Z,28.40
2018-08-20T22:38:32.388Z,28.30
2018-08-20T22:40:59.897Z,28.20
2018-08-20T22:43:27.451Z,28.30
2018-08-20T22:45:55.003Z,28.20
2018-08-20T22:48:22.512Z,28.10
2018-08-20T22:51:00.009Z,28.10
2018-08-20T22:53:32.137Z,28.10
2018-08-20T22:56:07.293Z,28.10
2018-08-20T22:58:35.048Z,28.00
2018-08-20T23:01:02.645Z,28.00
2018-08-20T23:03:30.147Z,27.90
2018-08-20T23:05:57.692Z,27.90
2018-08-20T23:08:25.182Z,27.90
2018-08-20T23:10:52.762Z,27.80
2018-08-20T23:13:20.322Z,28.70
2018-08-20T23:15:47.969Z,27.70
2018-08-20T23:18:15.640Z,27.80
2018-08-20T23:20:45.746Z,27.80
2018-08-20T23:23:15.260Z,27.60
2018-08-20T23:25:43.441Z,27.30
2018-08-20T23:28:10.986Z,27.60
2018-08-20T23:30:39.996Z,27.60
2018-08-20T23:33:08.094Z,27.60
2018-08-20T23:35:35.676Z,27.40
2018-08-20T23:38:03.288Z,27.50
2018-08-20T23:40:30.892Z,27.40
2018-08-20T23:42:58.427Z,27.40
2018-08-20T23:45:26.024Z,27.40
2018-08-20T23:47:53.642Z,27.20
2018-08-20T23:50:21.256Z,27.30
2018-08-20T23:52:48.796Z,25.10
2018-08-20T23:55:16.373Z,27.30
2018-08-20T23:57:43.900Z,27.30
